MDPP/POP METAR and TAF weather

Enter ICAO airport designator
Station Type Date Time Source
MDPP METAR 2020/06/06 21:00 UTC NOAA

MDPP 062100Z 10014KT 9999 FEW020 BKN300 31/25 Q1015


Station Type Date Time Source
MDPP Decoded METAR 2020/06/06 21:00 UTC NOAA

Puerto Plata International, Dominican Republic (MDPP) 19-45N 070-33W
Jun 06, 2020 - 05:00 PM EDT / 2020.06.06 2100 UTC
Wind: from the E (100 degrees) at 16 MPH (14 KT):0
Visibility: greater than 7 mile(s):0
Sky conditions: mostly cloudy
Temperature: 87 F (31 C)
Heat index: 97.5 F (36.4 C):1
Dew Point: 77 F (25 C)
Relative Humidity: 70%
Pressure (altimeter): 29.97 in. Hg (1015 hPa)
ob: MDPP 062100Z 10014KT 9999 FEW020 BKN300 31/25 Q1015
cycle: 21

Station Type Date Time Source
MDPP TAF 2020/06/06 18:58 UTC NOAA

TAF MDPP 061600Z 0618/0718 10014KT 9999 SCT022 SCT300
BECMG 0701/0703 00000KT

Example: see airport list